createdAt,value
2023-11-12T00:00:39.262Z,99781.34
2023-11-12T00:03:25.651Z,99784.38
2023-11-12T00:05:52.892Z,99789.13
2023-11-12T00:08:19.326Z,99779.34
2023-11-12T00:10:46.789Z,99775.78
2023-11-12T00:13:14.054Z,99783.03
2023-11-12T00:15:40.890Z,99785.06
2023-11-12T00:18:07.435Z,99780.81
2023-11-12T00:20:34.070Z,99786.06
2023-11-12T00:23:01.083Z,99784.88
2023-11-12T00:25:27.917Z,99782.13
2023-11-12T00:27:55.102Z,99780.97
2023-11-12T00:30:22.383Z,99778.06
2023-11-12T00:32:49.160Z,99784.69
2023-11-12T00:35:15.929Z,99790.75
2023-11-12T00:37:42.810Z,99791.78
2023-11-12T00:40:11.441Z,99788.06
2023-11-12T00:42:39.596Z,99794.47
2023-11-12T00:45:07.159Z,99787.84
2023-11-12T00:47:33.521Z,99790.91
2023-11-12T00:50:00.452Z,99790.75
2023-11-12T00:52:27.376Z,99786.53
2023-11-12T00:54:54.121Z,99791.59
2023-11-12T00:57:20.573Z,99792.78
2023-11-12T00:59:47.661Z,99795.47
2023-11-12T01:02:16.744Z,99794.78
2023-11-12T01:04:44.222Z,99800.88
2023-11-12T01:07:10.677Z,99805.56
2023-11-12T01:09:37.586Z,99801.72
2023-11-12T01:12:04.524Z,99800.00
2023-11-12T01:14:31.378Z,99804.41
2023-11-12T01:16:57.708Z,99802.25
2023-11-12T01:19:24.676Z,99799.69
2023-11-12T01:21:51.128Z,99801.25
2023-11-12T01:24:20.332Z,99800.38
2023-11-12T01:26:46.743Z,99803.09
2023-11-12T01:29:13.606Z,99799.22
2023-11-12T01:31:40.827Z,99800.06
2023-11-12T01:34:08.374Z,99795.22
2023-11-12T01:36:35.507Z,99803.16
2023-11-12T01:39:03.101Z,99801.81
2023-11-12T01:41:29.598Z,99808.38
2023-11-12T01:43:57.097Z,99808.38
2023-11-12T01:46:24.311Z,99803.34
2023-11-12T01:48:51.233Z,99803.34
2023-11-12T01:51:18.689Z,99808.91
2023-11-12T01:53:45.998Z,99803.50
2023-11-12T01:56:13.197Z,99803.34
2023-11-12T01:58:41.949Z,99796.94
2023-11-12T02:01:09.182Z,99801.34
2023-11-12T02:03:37.048Z,99803.19
2023-11-12T02:06:04.239Z,99796.09
2023-11-12T02:08:33.879Z,99803.84
2023-11-12T02:11:07.828Z,99792.72
2023-11-12T02:13:41.782Z,99795.75
2023-11-12T02:16:09.865Z,99801.81
2023-11-12T02:18:37.827Z,99806.69
2023-11-12T02:21:05.102Z,99800.13
2023-11-12T02:23:39.525Z,99804.00
2023-11-12T02:26:07.329Z,99800.28
2023-11-12T02:28:35.166Z,99800.75
2023-11-12T02:31:02.230Z,99806.84
2023-11-12T02:33:29.824Z,99800.75
2023-11-12T02:35:57.447Z,99802.09
2023-11-12T02:38:25.040Z,99805.78
2023-11-12T02:40:52.298Z,99803.94
2023-11-12T02:43:20.791Z,99794.84
2023-11-12T02:45:50.615Z,99795.38
2023-11-12T02:48:18.397Z,99796.84
2023-11-12T02:50:45.394Z,99797.53
2023-11-12T02:53:12.385Z,99799.38
2023-11-12T02:55:38.964Z,99801.94
2023-11-12T02:58:06.249Z,99806.47
2023-11-12T03:00:33.715Z,99804.63
2023-11-12T03:03:02.487Z,99806.00
2023-11-12T03:05:31.923Z,99808.84
2023-11-12T03:07:58.686Z,99796.91
2023-11-12T03:10:25.634Z,99798.75
2023-11-12T03:12:54.065Z,99811.25
2023-11-12T03:15:20.637Z,99808.69
2023-11-12T03:17:47.335Z,99807.81
2023-11-12T03:20:14.736Z,99803.78
2023-11-12T03:22:42.644Z,99812.25
2023-11-12T03:25:10.336Z,99809.22
2023-11-12T03:27:37.580Z,99805.84
2023-11-12T03:30:05.486Z,99811.94
2023-11-12T03:32:32.759Z,99808.69
2023-11-12T03:35:01.239Z,99822.03
2023-11-12T03:37:28.359Z,99816.78
2023-11-12T03:39:54.824Z,99813.56
2023-11-12T03:42:22.901Z,99816.25
2023-11-12T03:44:49.918Z,99816.94
2023-11-12T03:47:19.824Z,99814.78
2023-11-12T03:49:46.279Z,99815.91
2023-11-12T03:52:13.212Z,99814.25
2023-11-12T03:54:39.681Z,99815.41
2023-11-12T03:57:06.851Z,99820.97
2023-11-12T03:59:36.240Z,99813.03
2023-11-12T04:02:04.694Z,99820.13
2023-11-12T04:04:31.153Z,99816.56
2023-11-12T04:06:58.572Z,99815.41
2023-11-12T04:09:25.060Z,99824.19
2023-11-12T04:11:51.846Z,99822.34
2023-11-12T04:14:18.316Z,99815.91
2023-11-12T04:16:44.926Z,99821.97
2023-11-12T04:19:12.658Z,99826.38
2023-11-12T04:21:39.331Z,99829.06
2023-11-12T04:24:06.507Z,99824.34
2023-11-12T04:26:34.017Z,99824.19
2023-11-12T04:29:03.689Z,99830.66
2023-11-12T04:31:31.208Z,99834.56
2023-11-12T04:33:57.630Z,99831.03
2023-11-12T04:36:26.033Z,99838.97
2023-11-12T04:38:52.410Z,99831.88
2023-11-12T04:41:21.268Z,99830.88
2023-11-12T04:43:47.647Z,99829.03
2023-11-12T04:46:14.433Z,99842.66
2023-11-12T04:48:41.597Z,99846.38
2023-11-12T04:51:08.648Z,99843.19
2023-11-12T04:53:34.984Z,99842.34
2023-11-12T04:56:05.776Z,99849.44
2023-11-12T04:58:32.172Z,99837.28
2023-11-12T05:00:59.150Z,99846.22
2023-11-12T05:03:26.295Z,99839.91
2023-11-12T05:05:53.134Z,99846.31
2023-11-12T05:08:20.078Z,99850.97
2023-11-12T05:10:47.471Z,99859.28
2023-11-12T05:13:14.213Z,99865.13
2023-11-12T05:15:41.597Z,99856.44
2023-11-12T05:18:08.378Z,99852.91
2023-11-12T05:20:35.331Z,99865.69
2023-11-12T05:23:02.336Z,99863.47
2023-11-12T05:25:29.599Z,99856.84
2023-11-12T05:27:56.374Z,99858.53
2023-11-12T05:30:26.188Z,99860.38
2023-11-12T05:32:52.857Z,99869.84
2023-11-12T05:35:20.063Z,99862.94
2023-11-12T05:37:49.438Z,99865.63
2023-11-12T05:40:18.701Z,99872.88
2023-11-12T05:42:45.076Z,99882.09
2023-11-12T05:45:12.750Z,99876.34
2023-11-12T05:47:39.165Z,99873.47
2023-11-12T05:50:06.848Z,99874.94
2023-11-12T05:52:33.418Z,99872.94
2023-11-12T05:55:00.270Z,99884.03
2023-11-12T05:57:27.476Z,99883.09
2023-11-12T05:59:54.392Z,99885.56
2023-11-12T06:02:20.897Z,99883.03
2023-11-12T06:04:47.687Z,99878.25
2023-11-12T06:07:14.171Z,99904.19
2023-11-12T06:09:41.540Z,99896.56
2023-11-12T06:12:08.407Z,99903.25
2023-11-12T06:14:37.035Z,99899.25
2023-11-12T06:17:04.921Z,99901.81
2023-11-12T06:19:31.786Z,99901.81
2023-11-12T06:21:58.439Z,99896.88
2023-11-12T06:24:25.231Z,99901.56
2023-11-12T06:26:51.948Z,99912.34
2023-11-12T06:29:18.697Z,99902.16
2023-11-12T06:31:45.097Z,99902.63
2023-11-12T06:34:12.444Z,99913.25
2023-11-12T06:36:39.640Z,99910.41
2023-11-12T06:39:06.360Z,99916.34
2023-11-12T06:41:33.608Z,99921.03
2023-11-12T06:44:00.341Z,99919.72
2023-11-12T06:46:26.890Z,99921.66
2023-11-12T06:48:53.661Z,99924.22
2023-11-12T06:51:24.661Z,99926.06
2023-11-12T06:53:52.220Z,99927.59
2023-11-12T06:56:18.575Z,99933.69
2023-11-12T06:58:45.453Z,99938.53
2023-11-12T07:01:13.577Z,99936.00
2023-11-12T07:03:40.435Z,99941.78
2023-11-12T07:06:07.169Z,99938.88
2023-11-12T07:08:34.169Z,99950.66
2023-11-12T07:11:00.679Z,99956.75
2023-11-12T07:13:27.504Z,99953.44
2023-11-12T07:15:55.400Z,99952.06
2023-11-12T07:18:22.491Z,99949.75
2023-11-12T07:20:48.856Z,99958.94
2023-11-12T07:23:16.257Z,99951.44
2023-11-12T07:25:42.903Z,99961.13
2023-11-12T07:28:09.708Z,99961.53
2023-11-12T07:30:38.643Z,99960.06
2023-11-12T07:33:08.829Z,99972.41
2023-11-12T07:35:35.306Z,99971.00
2023-11-12T07:38:02.212Z,99975.41
2023-11-12T07:40:28.592Z,99965.63
2023-11-12T07:42:57.191Z,99977.66
2023-11-12T07:45:31.466Z,99966.38
2023-11-12T07:48:01.955Z,99975.25
2023-11-12T07:50:28.801Z,99976.50
2023-11-12T07:52:55.949Z,99970.25
2023-11-12T07:55:22.375Z,99968.19
2023-11-12T07:57:49.558Z,99969.03
2023-11-12T08:00:17.219Z,99972.66
2023-11-12T08:02:46.208Z,99975.69
2023-11-12T08:05:12.931Z,99981.53
2023-11-12T08:07:40.917Z,99973.44
2023-11-12T08:10:08.928Z,99969.81
2023-11-12T08:12:36.043Z,99974.88
2023-11-12T08:15:05.566Z,99982.75
2023-11-12T08:17:32.897Z,99973.53
2023-11-12T08:19:59.425Z,99978.41
2023-11-12T08:22:26.347Z,99982.03
2023-11-12T08:24:55.201Z,99976.25
2023-11-12T08:27:23.241Z,99984.56
2023-11-12T08:29:50.667Z,99987.63
2023-11-12T08:32:18.276Z,99989.66
2023-11-12T08:34:46.346Z,99997.94
2023-11-12T08:37:13.618Z,99998.19
2023-11-12T08:39:41.636Z,99999.09
2023-11-12T08:42:08.569Z,100004.44
2023-11-12T08:44:35.628Z,100007.34
2023-11-12T08:47:03.896Z,100004.78
2023-11-12T08:49:32.798Z,100010.88
2023-11-12T08:52:00.403Z,100011.25
2023-11-12T08:54:26.987Z,100013.28
2023-11-12T08:56:53.905Z,100007.09
2023-11-12T08:59:20.533Z,100019.66
2023-11-12T09:01:47.191Z,100019.97
2023-11-12T09:04:13.588Z,100017.34
2023-11-12T09:06:40.639Z,100021.66
2023-11-12T09:09:09.446Z,100017.63
2023-11-12T09:11:37.144Z,100021.09
2023-11-12T09:14:05.872Z,100021.34
2023-11-12T09:16:33.953Z,100020.34
2023-11-12T09:19:00.742Z,100023.22
2023-11-12T09:21:31.625Z,100015.59
2023-11-12T09:23:58.566Z,100024.53
2023-11-12T09:26:25.549Z,100013.56
2023-11-12T09:28:52.707Z,100018.59
2023-11-12T09:31:20.167Z,100014.59
2023-11-12T09:33:47.950Z,100017.66
2023-11-12T09:36:16.178Z,100015.63
2023-11-12T09:38:42.789Z,100019.34
2023-11-12T09:41:10.483Z,100022.91
2023-11-12T09:43:37.284Z,100013.75
2023-11-12T09:46:08.858Z,100019.34
2023-11-12T09:48:40.490Z,100012.56
2023-11-12T09:51:10.279Z,100017.00
2023-11-12T09:53:37.916Z,100013.75
2023-11-12T09:56:11.311Z,100011.22
2023-11-12T09:58:43.406Z,100010.56
2023-11-12T10:01:11.957Z,100007.16
2023-11-12T10:03:39.570Z,100007.38
2023-11-12T10:06:07.935Z,100004.81
2023-11-12T10:08:38.933Z,100011.13
2023-11-12T10:11:31.420Z,100004.19
2023-11-12T10:14:01.150Z,100003.13
2023-11-12T10:16:32.109Z,100000.97
2023-11-12T10:19:17.156Z,100000.56
2023-11-12T10:21:58.770Z,100000.44
2023-11-12T10:24:29.456Z,100002.81
2023-11-12T10:27:05.562Z,100003.31
2023-11-12T10:29:32.540Z,100002.31
2023-11-12T10:31:59.938Z,99999.78
2023-11-12T10:34:27.743Z,99994.53
2023-11-12T10:37:14.867Z,100001.78
2023-11-12T10:39:44.161Z,100006.03
2023-11-12T10:42:25.373Z,100001.97
2023-11-12T10:44:56.431Z,99998.59
2023-11-12T10:47:25.896Z,99997.38
2023-11-12T10:49:53.407Z,100000.28
2023-11-12T10:52:20.267Z,99993.09
2023-11-12T10:54:47.652Z,99993.34
2023-11-12T10:57:17.816Z,99997.22
2023-11-12T10:59:45.579Z,100001.94
2023-11-12T11:02:19.825Z,100000.78
2023-11-12T11:04:47.778Z,99997.16
2023-11-12T11:07:15.478Z,99999.41
2023-11-12T11:09:43.122Z,100005.34
2023-11-12T11:12:14.180Z,99994.88
2023-11-12T11:14:40.709Z,99998.06
2023-11-12T11:17:08.851Z,100002.66
2023-11-12T11:19:45.166Z,100005.28
2023-11-12T11:22:32.974Z,100011.34
2023-11-12T11:25:20.660Z,100007.28
2023-11-12T11:27:48.237Z,100011.53
2023-11-12T11:30:16.775Z,100005.75
2023-11-12T11:32:52.946Z,100012.53
2023-11-12T11:35:21.679Z,100003.56
2023-11-12T11:38:09.280Z,100014.06
2023-11-12T11:40:37.681Z,100004.59
2023-11-12T11:43:23.881Z,100006.63
2023-11-12T11:46:06.428Z,100004.38
2023-11-12T11:48:34.000Z,100002.19
2023-11-12T11:51:02.493Z,100001.13
2023-11-12T11:53:30.456Z,100002.16
2023-11-12T11:56:07.033Z,100004.50
2023-11-12T11:58:52.960Z,100002.50
2023-11-12T12:01:20.090Z,100007.63
2023-11-12T12:03:47.338Z,100001.16
2023-11-12T12:06:18.569Z,100009.78
2023-11-12T12:08:52.977Z,100007.41
2023-11-12T12:11:25.449Z,100003.34
2023-11-12T12:14:01.670Z,100005.25
2023-11-12T12:16:30.060Z,100002.56
2023-11-12T12:18:57.961Z,100000.53
2023-11-12T12:21:25.454Z,100000.44
2023-11-12T12:23:53.035Z,100002.13
2023-11-12T12:26:25.200Z,100013.41
2023-11-12T12:28:52.947Z,100001.88
2023-11-12T12:31:20.013Z,100006.78
2023-11-12T12:34:08.735Z,100012.38
2023-11-12T12:36:36.156Z,100006.56
2023-11-12T12:39:07.148Z,100003.84
2023-11-12T12:41:33.565Z,100004.88
2023-11-12T12:44:01.473Z,100004.91
2023-11-12T12:46:48.120Z,100008.13
2023-11-12T12:49:35.003Z,100010.16
2023-11-12T12:52:03.298Z,100009.16
2023-11-12T12:54:31.193Z,100009.13
2023-11-12T12:57:04.227Z,100010.28
2023-11-12T12:59:35.627Z,100003.69
2023-11-12T13:02:03.393Z,99999.59
2023-11-12T13:04:31.439Z,100008.09
2023-11-12T13:07:01.018Z,100010.13
2023-11-12T13:09:30.245Z,100012.84
2023-11-12T13:11:58.384Z,100007.59
2023-11-12T13:14:26.160Z,100008.59
2023-11-12T13:16:54.493Z,100021.44
2023-11-12T13:19:23.721Z,100026.84
2023-11-12T13:21:57.040Z,100024.47
2023-11-12T13:24:29.716Z,100021.09
2023-11-12T13:26:56.691Z,100020.19
2023-11-12T13:29:23.824Z,100024.19
2023-11-12T13:31:51.731Z,100032.75
2023-11-12T13:34:19.058Z,100034.94
2023-11-12T13:36:47.197Z,100039.91
2023-11-12T13:39:15.089Z,100049.84
2023-11-12T13:41:41.965Z,100046.03
2023-11-12T13:44:09.907Z,100052.84
2023-11-12T13:46:37.067Z,100057.72
2023-11-12T13:49:06.024Z,100051.63
2023-11-12T13:51:35.512Z,100055.31
2023-11-12T13:54:05.739Z,100061.47
2023-11-12T13:56:35.924Z,100052.91
2023-11-12T13:59:03.543Z,100046.34
2023-11-12T14:01:32.709Z,100056.84
2023-11-12T14:03:59.841Z,100064.47
2023-11-12T14:06:26.740Z,100064.53
2023-11-12T14:08:55.652Z,100064.22
2023-11-12T14:11:22.865Z,100072.16
2023-11-12T14:13:51.579Z,100070.47
2023-11-12T14:16:24.713Z,100073.69
2023-11-12T14:18:53.945Z,100067.78
2023-11-12T14:21:22.302Z,100083.16
2023-11-12T14:23:51.865Z,100085.53
2023-11-12T14:26:20.369Z,100088.00
2023-11-12T14:28:49.541Z,100088.94
2023-11-12T14:31:17.965Z,100086.19
2023-11-12T14:33:46.449Z,100084.56
2023-11-12T14:36:13.135Z,100084.34
2023-11-12T14:38:41.170Z,100092.22
2023-11-12T14:41:09.036Z,100093.97
2023-11-12T14:43:38.548Z,100096.53
2023-11-12T14:46:06.249Z,100095.28
2023-11-12T14:48:36.155Z,100088.34
2023-11-12T14:51:05.779Z,100095.59
2023-11-12T14:53:32.996Z,100091.81
2023-11-12T14:55:59.436Z,100092.91
2023-11-12T14:58:26.823Z,100092.81
2023-11-12T15:00:55.078Z,100097.06
2023-11-12T15:03:23.569Z,100090.66
2023-11-12T15:05:49.951Z,100096.22
2023-11-12T15:08:16.571Z,100090.50
2023-11-12T15:10:43.593Z,100092.66
2023-11-12T15:13:10.609Z,100093.50
2023-11-12T15:15:37.221Z,100091.66
2023-11-12T15:18:04.658Z,100089.13
2023-11-12T15:20:31.112Z,100096.22
2023-11-12T15:22:58.039Z,100097.81
2023-11-12T15:25:25.459Z,100102.53
2023-11-12T15:27:53.945Z,100106.22
2023-11-12T15:30:21.144Z,100109.47
2023-11-12T15:32:48.383Z,100110.63
2023-11-12T15:35:15.652Z,100103.69
2023-11-12T15:37:44.308Z,100098.75
2023-11-12T15:40:17.844Z,100097.75
2023-11-12T15:42:47.288Z,100097.44
2023-11-12T15:45:17.899Z,100101.97
2023-11-12T15:47:46.547Z,100101.28
2023-11-12T15:50:14.186Z,100102.13
2023-11-12T15:52:42.562Z,100097.75
2023-11-12T15:55:12.960Z,100093.66
2023-11-12T15:57:41.235Z,100102.59
2023-11-12T16:00:13.692Z,100110.84
2023-11-12T16:02:41.559Z,100107.00
2023-11-12T16:05:10.437Z,100114.53
2023-11-12T16:07:39.891Z,100105.91
2023-11-12T16:10:07.645Z,100106.03
2023-11-12T16:12:34.825Z,100112.00
2023-11-12T16:15:04.990Z,100101.19
2023-11-12T16:17:32.617Z,100109.84
2023-11-12T16:20:00.746Z,100112.53
2023-11-12T16:22:28.259Z,100104.59
2023-11-12T16:24:54.700Z,100107.44
2023-11-12T16:27:22.461Z,100114.84
2023-11-12T16:29:49.290Z,100108.59
2023-11-12T16:32:20.002Z,100112.84
2023-11-12T16:34:46.592Z,100110.75
2023-11-12T16:37:13.425Z,100112.34
2023-11-12T16:39:45.264Z,100116.03
2023-11-12T16:42:13.707Z,100112.66
2023-11-12T16:44:41.669Z,100121.03
2023-11-12T16:47:09.636Z,100127.97
2023-11-12T16:49:37.594Z,100122.44
2023-11-12T16:52:05.783Z,100132.53
2023-11-12T16:54:35.010Z,100137.31
2023-11-12T16:57:10.233Z,100134.19
2023-11-12T16:59:41.636Z,100140.44
2023-11-12T17:02:11.079Z,100136.72
2023-11-12T17:04:38.679Z,100130.34
2023-11-12T17:07:08.925Z,100140.53
2023-11-12T17:09:35.923Z,100145.53
2023-11-12T17:12:04.334Z,100144.53
2023-11-12T17:14:31.332Z,100140.97
2023-11-12T17:16:58.420Z,100147.53
2023-11-12T17:19:25.484Z,100144.38
2023-11-12T17:21:54.344Z,100143.06
2023-11-12T17:24:23.603Z,100143.06
2023-11-12T17:26:54.169Z,100144.63
2023-11-12T17:29:21.545Z,100144.06
2023-11-12T17:31:49.483Z,100152.03
2023-11-12T17:34:16.042Z,100147.63
2023-11-12T17:36:43.330Z,100156.88
2023-11-12T17:39:10.390Z,100148.91
2023-11-12T17:41:38.128Z,100152.47
2023-11-12T17:44:05.253Z,100156.03
2023-11-12T17:46:32.338Z,100156.47
2023-11-12T17:49:01.318Z,100160.72
2023-11-12T17:51:28.529Z,100167.13
2023-11-12T17:53:55.529Z,100171.50
2023-11-12T17:56:23.091Z,100164.56
2023-11-12T17:58:50.410Z,100173.34
2023-11-12T18:01:18.946Z,100168.81
2023-11-12T18:03:46.419Z,100177.59
2023-11-12T18:06:16.827Z,100179.59
2023-11-12T18:08:43.418Z,100172.50
2023-11-12T18:11:13.309Z,100181.59
2023-11-12T18:13:41.600Z,100180.44
2023-11-12T18:16:10.512Z,100186.09
2023-11-12T18:18:40.159Z,100188.09
2023-11-12T18:21:07.026Z,100189.25
2023-11-12T18:23:34.793Z,100189.41
2023-11-12T18:26:01.963Z,100193.94
2023-11-12T18:28:29.135Z,100197.25
2023-11-12T18:30:56.469Z,100196.25
2023-11-12T18:33:24.148Z,100202.03
2023-11-12T18:35:51.314Z,100198.78
2023-11-12T18:38:18.419Z,100199.66
2023-11-12T18:40:47.532Z,100192.53
2023-11-12T18:43:15.802Z,100198.78
2023-11-12T18:45:42.796Z,100196.09
2023-11-12T18:48:09.606Z,100190.69
2023-11-12T18:50:37.029Z,100186.16
2023-11-12T18:53:03.747Z,100183.59
2023-11-12T18:55:31.868Z,100195.25
2023-11-12T18:57:59.934Z,100184.91
2023-11-12T19:00:26.979Z,100192.28
2023-11-12T19:02:53.834Z,100192.44
2023-11-12T19:05:21.533Z,100198.69
2023-11-12T19:07:48.949Z,100197.28
2023-11-12T19:10:16.980Z,100192.19
2023-11-12T19:12:44.786Z,100199.72
2023-11-12T19:15:13.433Z,100195.72
2023-11-12T19:17:44.659Z,100192.72
2023-11-12T19:20:15.904Z,100204.38
2023-11-12T19:22:44.838Z,100198.44
2023-11-12T19:25:14.682Z,100207.97
2023-11-12T19:27:45.162Z,100208.97
2023-11-12T19:30:15.670Z,100215.06
2023-11-12T19:32:44.393Z,100208.50
2023-11-12T19:35:13.856Z,100212.91
2023-11-12T19:37:40.944Z,100206.38
2023-11-12T19:40:08.981Z,100210.47
2023-11-12T19:42:36.401Z,100211.47
2023-11-12T19:45:06.878Z,100215.72
2023-11-12T19:47:34.022Z,100219.56
2023-11-12T19:50:01.087Z,100212.75
2023-11-12T19:52:28.930Z,100216.16
2023-11-12T19:54:55.737Z,100220.56
2023-11-12T19:57:22.836Z,100213.06
2023-11-12T19:59:51.959Z,100209.66
2023-11-12T20:02:18.685Z,100213.06
2023-11-12T20:04:46.276Z,100219.16
2023-11-12T20:07:13.317Z,100219.84
2023-11-12T20:09:40.518Z,100220.84
2023-11-12T20:12:07.584Z,100223.41
2023-11-12T20:14:37.185Z,100217.16
2023-11-12T20:17:04.119Z,100215.47
2023-11-12T20:19:31.183Z,100217.03
2023-11-12T20:21:57.852Z,100222.13
2023-11-12T20:24:26.290Z,100218.28
2023-11-12T20:26:54.912Z,100216.56
2023-11-12T20:29:22.580Z,100209.47
2023-11-12T20:31:54.393Z,100221.97
2023-11-12T20:34:22.697Z,100223.66
2023-11-12T20:36:50.975Z,100225.38
2023-11-12T20:39:20.394Z,100233.47
2023-11-12T20:41:50.327Z,100227.50
2023-11-12T20:44:17.344Z,100228.66
2023-11-12T20:46:45.485Z,100227.66
2023-11-12T20:49:17.815Z,100232.66
2023-11-12T20:51:46.159Z,100227.41
2023-11-12T20:54:18.568Z,100226.25
2023-11-12T20:56:45.829Z,100227.25
2023-11-12T20:59:13.058Z,100232.50
2023-11-12T21:01:40.140Z,100237.59
2023-11-12T21:04:11.553Z,100226.25
2023-11-12T21:06:41.550Z,100229.94
2023-11-12T21:09:09.039Z,100231.78
2023-11-12T21:11:39.689Z,100228.94
2023-11-12T21:14:11.772Z,100226.97
2023-11-12T21:16:39.130Z,100226.09
2023-11-12T21:19:06.890Z,100222.41
2023-11-12T21:21:33.778Z,100216.88
2023-11-12T21:24:05.477Z,100211.78
2023-11-12T21:26:33.962Z,100215.16
2023-11-12T21:29:01.025Z,100212.47
2023-11-12T21:31:27.803Z,100209.78
2023-11-12T21:33:54.819Z,100212.63
2023-11-12T21:36:21.591Z,100215.47
2023-11-12T21:38:48.568Z,100218.00
2023-11-12T21:41:15.190Z,100220.03
2023-11-12T21:43:42.272Z,100221.63
2023-11-12T21:46:10.034Z,100223.03
2023-11-12T21:48:40.203Z,100224.59
2023-11-12T21:51:07.184Z,100219.19
2023-11-12T21:53:36.033Z,100221.88
2023-11-12T21:56:03.973Z,100234.53
2023-11-12T21:58:31.482Z,100230.72
2023-11-12T22:00:58.496Z,100228.88
2023-11-12T22:03:26.858Z,100225.72
2023-11-12T22:05:54.337Z,100237.38
2023-11-12T22:08:22.381Z,100238.22
2023-11-12T22:10:52.100Z,100234.53
2023-11-12T22:13:19.293Z,100234.38
2023-11-12T22:15:47.695Z,100235.53
2023-11-12T22:18:14.842Z,100239.06
2023-11-12T22:20:42.040Z,100254.13
2023-11-12T22:23:10.790Z,100248.72
2023-11-12T22:25:38.002Z,100256.66
2023-11-12T22:28:06.018Z,100250.72
2023-11-12T22:30:32.630Z,100255.25
2023-11-12T22:32:59.487Z,100255.41
2023-11-12T22:35:25.918Z,100258.81
2023-11-12T22:37:53.025Z,100252.41
2023-11-12T22:40:20.470Z,100254.13
2023-11-12T22:42:47.365Z,100258.50
2023-11-12T22:45:14.026Z,100262.91
2023-11-12T22:47:42.125Z,100268.31
2023-11-12T22:50:09.640Z,100266.75
2023-11-12T22:52:36.824Z,100264.75
2023-11-12T22:55:04.002Z,100267.59
2023-11-12T22:57:32.955Z,100273.84
2023-11-12T23:00:05.185Z,100273.13
2023-11-12T23:02:32.871Z,100271.59
2023-11-12T23:04:59.296Z,100276.97
2023-11-12T23:07:27.213Z,100276.97
2023-11-12T23:09:53.644Z,100275.13
2023-11-12T23:12:21.125Z,100274.28
2023-11-12T23:14:51.528Z,100283.50
2023-11-12T23:17:22.121Z,100269.88
2023-11-12T23:19:48.689Z,100275.13
2023-11-12T23:22:16.041Z,100275.56
2023-11-12T23:24:42.494Z,100283.81
2023-11-12T23:27:09.370Z,100277.56
2023-11-12T23:29:38.807Z,100278.69
2023-11-12T23:32:09.683Z,100274.84
2023-11-12T23:34:37.261Z,100283.94
2023-11-12T23:37:07.095Z,100279.53
2023-11-12T23:39:33.566Z,100285.22
2023-11-12T23:42:00.304Z,100284.81
2023-11-12T23:44:26.653Z,100294.19
2023-11-12T23:46:53.259Z,100291.47
2023-11-12T23:49:19.644Z,100290.63
2023-11-12T23:51:46.362Z,100288.50
2023-11-12T23:54:13.064Z,100287.38
2023-11-12T23:56:39.746Z,100280.28
2023-11-12T23:59:06.522Z,100287.25
